sensor_id;sensor_type;location;lat;lon;timestamp;temperature;humidity
5848;DHT22;8756;49.29324300;8.70599800;2023-02-15T00:01:55;2.20;99.90
5848;DHT22;8756;49.29324300;8.70599800;2023-02-15T00:04:23;2.20;99.90
5848;DHT22;8756;49.29324300;8.70599800;2023-02-15T00:07:10;2.20;99.90
5848;DHT22;8756;49.29324300;8.70599800;2023-02-15T00:09:35;2.30;99.90
5848;DHT22;8756;49.29324300;8.70599800;2023-02-15T00:12:01;2.30;99.90
5848;DHT22;8756;49.29324300;8.70599800;2023-02-15T00:14:26;2.30;99.90
5848;DHT22;8756;49.29324300;8.70599800;2023-02-15T00:16:52;2.30;99.90
5848;DHT22;8756;49.29324300;8.70599800;2023-02-15T00:19:21;2.40;99.90
5848;DHT22;8756;49.29324300;8.70599800;2023-02-15T00:21:47;2.40;99.90
5848;DHT22;8756;49.29324300;8.70599800;2023-02-15T00:24:15;2.40;99.90
5848;DHT22;8756;49.29324300;8.70599800;2023-02-15T00:26:43;2.40;99.90
5848;DHT22;8756;49.29324300;8.70599800;2023-02-15T00:29:10;2.40;99.90
5848;DHT22;8756;49.29324300;8.70599800;2023-02-15T00:31:37;2.40;99.90
5848;DHT22;8756;49.29324300;8.70599800;2023-02-15T00:34:18;2.40;99.90
5848;DHT22;8756;49.29324300;8.70599800;2023-02-15T00:36:46;2.40;99.90
5848;DHT22;8756;49.29324300;8.70599800;2023-02-15T00:39:11;2.40;99.90
5848;DHT22;8756;49.29324300;8.70599800;2023-02-15T00:41:38;2.40;99.90
5848;DHT22;8756;49.29324300;8.70599800;2023-02-15T00:44:04;2.40;99.90
5848;DHT22;8756;49.29324300;8.70599800;2023-02-15T00:46:30;2.40;99.90
5848;DHT22;8756;49.29324300;8.70599800;2023-02-15T00:48:56;2.40;99.90
5848;DHT22;8756;49.29324300;8.70599800;2023-02-15T00:51:22;2.40;99.90
5848;DHT22;8756;49.29324300;8.70599800;2023-02-15T00:53:48;2.40;99.90
5848;DHT22;8756;49.29324300;8.70599800;2023-02-15T00:56:14;2.40;99.90
5848;DHT22;8756;49.29324300;8.70599800;2023-02-15T00:58:40;2.40;99.90
5848;DHT22;8756;49.29324300;8.70599800;2023-02-15T01:01:12;2.40;99.90
5848;DHT22;8756;49.29324300;8.70599800;2023-02-15T01:03:40;2.30;99.90
5848;DHT22;8756;49.29324300;8.70599800;2023-02-15T01:06:10;2.30;99.90
5848;DHT22;8756;49.29324300;8.70599800;2023-02-15T01:08:36;2.30;99.90
5848;DHT22;8756;49.29324300;8.70599800;2023-02-15T01:11:11;2.30;99.90
5848;DHT22;8756;49.29324300;8.70599800;2023-02-15T01:13:47;2.30;99.90
5848;DHT22;8756;49.29324300;8.70599800;2023-02-15T01:16:14;2.30;99.90
5848;DHT22;8756;49.29324300;8.70599800;2023-02-15T01:18:40;2.20;99.90
5848;DHT22;8756;49.29324300;8.70599800;2023-02-15T01:21:10;2.20;99.90
5848;DHT22;8756;49.29324300;8.70599800;2023-02-15T01:23:39;2.20;99.90
5848;DHT22;8756;49.29324300;8.70599800;2023-02-15T01:26:06;2.20;99.90
5848;DHT22;8756;49.29324300;8.70599800;2023-02-15T01:28:32;2.20;99.90
5848;DHT22;8756;49.29324300;8.70599800;2023-02-15T01:30:57;2.20;99.90
5848;DHT22;8756;49.29324300;8.70599800;2023-02-15T01:33:24;2.20;99.90
5848;DHT22;8756;49.29324300;8.70599800;2023-02-15T01:35:56;2.20;99.90
5848;DHT22;8756;49.29324300;8.70599800;2023-02-15T01:38:22;2.30;99.90
5848;DHT22;8756;49.29324300;8.70599800;2023-02-15T01:40:53;2.30;99.90
5848;DHT22;8756;49.29324300;8.70599800;2023-02-15T01:43:19;2.30;99.90
5848;DHT22;8756;49.29324300;8.70599800;2023-02-15T01:45:47;2.30;99.90
5848;DHT22;8756;49.29324300;8.70599800;2023-02-15T01:48:24;2.40;99.90
5848;DHT22;8756;49.29324300;8.70599800;2023-02-15T01:51:00;2.40;99.90
5848;DHT22;8756;49.29324300;8.70599800;2023-02-15T01:53:32;2.40;99.90
5848;DHT22;8756;49.29324300;8.70599800;2023-02-15T01:56:06;2.40;99.90
5848;DHT22;8756;49.29324300;8.70599800;2023-02-15T01:58:36;2.40;99.90
5848;DHT22;8756;49.29324300;8.70599800;2023-02-15T02:01:04;2.40;99.90
5848;DHT22;8756;49.29324300;8.70599800;2023-02-15T02:06:04;2.40;99.90
5848;DHT22;8756;49.29324300;8.70599800;2023-02-15T02:08:31;2.40;99.90
5848;DHT22;8756;49.29324300;8.70599800;2023-02-15T02:10:57;2.40;99.90
5848;DHT22;8756;49.29324300;8.70599800;2023-02-15T02:13:23;2.40;99.90
5848;DHT22;8756;49.29324300;8.70599800;2023-02-15T02:15:58;2.30;99.90
5848;DHT22;8756;49.29324300;8.70599800;2023-02-15T02:24:53;2.10;99.90
5848;DHT22;8756;49.29324300;8.70599800;2023-02-15T02:27:47;2.10;99.90
5848;DHT22;8756;49.29324300;8.70599800;2023-02-15T02:34:01;2.10;99.90
5848;DHT22;8756;49.29324300;8.70599800;2023-02-15T02:36:58;2.20;99.90
5848;DHT22;8756;49.29324300;8.70599800;2023-02-15T02:45:43;2.20;99.90
5848;DHT22;8756;49.29324300;8.70599800;2023-02-15T02:48:19;2.20;99.90
5848;DHT22;8756;49.29324300;8.70599800;2023-02-15T02:50:48;2.20;99.90
5848;DHT22;8756;49.29324300;8.70599800;2023-02-15T02:53:13;2.20;99.90
5848;DHT22;8756;49.29324300;8.70599800;2023-02-15T02:55:47;2.20;99.90
5848;DHT22;8756;49.29324300;8.70599800;2023-02-15T03:01:19;2.20;99.90
5848;DHT22;8756;49.29324300;8.70599800;2023-02-15T03:03:53;2.20;99.90
5848;DHT22;8756;49.29324300;8.70599800;2023-02-15T03:06:37;2.20;99.90
5848;DHT22;8756;49.29324300;8.70599800;2023-02-15T03:09:30;2.10;99.90
5848;DHT22;8756;49.29324300;8.70599800;2023-02-15T03:12:20;2.10;99.90
5848;DHT22;8756;49.29324300;8.70599800;2023-02-15T03:14:52;2.10;99.90
5848;DHT22;8756;49.29324300;8.70599800;2023-02-15T03:17:23;2.10;99.90
5848;DHT22;8756;49.29324300;8.70599800;2023-02-15T03:19:51;2.20;99.90
5848;DHT22;8756;49.29324300;8.70599800;2023-02-15T03:22:23;2.20;99.90
5848;DHT22;8756;49.29324300;8.70599800;2023-02-15T03:25:04;2.20;99.90
5848;DHT22;8756;49.29324300;8.70599800;2023-02-15T03:27:37;2.30;99.90
5848;DHT22;8756;49.29324300;8.70599800;2023-02-15T03:30:09;2.30;99.90
5848;DHT22;8756;49.29324300;8.70599800;2023-02-15T03:32:37;2.40;99.90
5848;DHT22;8756;49.29324300;8.70599800;2023-02-15T03:35:04;2.40;99.90
5848;DHT22;8756;49.29324300;8.70599800;2023-02-15T03:37:36;2.40;99.90
5848;DHT22;8756;49.29324300;8.70599800;2023-02-15T03:40:19;2.30;99.90
5848;DHT22;8756;49.29324300;8.70599800;2023-02-15T03:46:28;2.20;99.90
5848;DHT22;8756;49.29324300;8.70599800;2023-02-15T03:49:04;2.20;99.90
5848;DHT22;8756;49.29324300;8.70599800;2023-02-15T03:51:36;2.20;99.90
5848;DHT22;8756;49.29324300;8.70599800;2023-02-15T03:54:17;2.20;99.90
5848;DHT22;8756;49.29324300;8.70599800;2023-02-15T03:57:05;2.20;99.90
5848;DHT22;8756;49.29324300;8.70599800;2023-02-15T03:59:52;2.20;99.90
5848;DHT22;8756;49.29324300;8.70599800;2023-02-15T04:05:31;2.30;99.90
5848;DHT22;8756;49.29324300;8.70599800;2023-02-15T04:07:57;2.40;99.90
5848;DHT22;8756;49.29324300;8.70599800;2023-02-15T04:10:22;2.40;99.90
5848;DHT22;8756;49.29324300;8.70599800;2023-02-15T04:13:06;2.40;99.90
5848;DHT22;8756;49.29324300;8.70599800;2023-02-15T04:15:32;2.50;99.90
5848;DHT22;8756;49.29324300;8.70599800;2023-02-15T04:18:16;2.50;99.90
5848;DHT22;8756;49.29324300;8.70599800;2023-02-15T04:20:45;2.40;99.90
5848;DHT22;8756;49.29324300;8.70599800;2023-02-15T04:23:30;2.40;99.90
5848;DHT22;8756;49.29324300;8.70599800;2023-02-15T04:26:16;2.40;99.90
5848;DHT22;8756;49.29324300;8.70599800;2023-02-15T04:28:41;2.30;99.90
5848;DHT22;8756;49.29324300;8.70599800;2023-02-15T04:31:07;2.30;99.90
5848;DHT22;8756;49.29324300;8.70599800;2023-02-15T04:33:33;2.30;99.90
5848;DHT22;8756;49.29324300;8.70599800;2023-02-15T04:36:01;2.30;99.90
5848;DHT22;8756;49.29324300;8.70599800;2023-02-15T04:38:28;2.40;99.90
5848;DHT22;8756;49.29324300;8.70599800;2023-02-15T04:40:53;2.40;99.90
5848;DHT22;8756;49.29324300;8.70599800;2023-02-15T04:43:19;2.40;99.90
5848;DHT22;8756;49.29324300;8.70599800;2023-02-15T04:45:49;2.40;99.90
5848;DHT22;8756;49.29324300;8.70599800;2023-02-15T04:48:16;2.40;99.90
5848;DHT22;8756;49.29324300;8.70599800;2023-02-15T04:50:43;2.40;99.90
5848;DHT22;8756;49.29324300;8.70599800;2023-02-15T04:53:09;2.40;99.90
5848;DHT22;8756;49.29324300;8.70599800;2023-02-15T04:55:34;2.30;99.90
5848;DHT22;8756;49.29324300;8.70599800;2023-02-15T04:58:00;2.30;99.90
5848;DHT22;8756;49.29324300;8.70599800;2023-02-15T05:00:26;2.20;99.90
5848;DHT22;8756;49.29324300;8.70599800;2023-02-15T05:02:52;2.30;99.90
5848;DHT22;8756;49.29324300;8.70599800;2023-02-15T05:05:18;2.20;99.90
5848;DHT22;8756;49.29324300;8.70599800;2023-02-15T05:07:44;2.20;99.90
5848;DHT22;8756;49.29324300;8.70599800;2023-02-15T05:10:10;2.20;99.90
5848;DHT22;8756;49.29324300;8.70599800;2023-02-15T05:12:35;2.30;99.90
5848;DHT22;8756;49.29324300;8.70599800;2023-02-15T05:15:01;2.30;99.90
5848;DHT22;8756;49.29324300;8.70599800;2023-02-15T05:17:27;2.30;99.90
5848;DHT22;8756;49.29324300;8.70599800;2023-02-15T05:19:53;2.20;99.90
5848;DHT22;8756;49.29324300;8.70599800;2023-02-15T05:22:19;2.20;99.90
5848;DHT22;8756;49.29324300;8.70599800;2023-02-15T05:24:44;2.20;99.90
5848;DHT22;8756;49.29324300;8.70599800;2023-02-15T05:27:28;2.20;99.90
5848;DHT22;8756;49.29324300;8.70599800;2023-02-15T05:30:13;2.20;99.90
5848;DHT22;8756;49.29324300;8.70599800;2023-02-15T05:32:39;2.20;99.90
5848;DHT22;8756;49.29324300;8.70599800;2023-02-15T05:35:06;2.20;99.90
5848;DHT22;8756;49.29324300;8.70599800;2023-02-15T05:37:33;2.20;99.90
5848;DHT22;8756;49.29324300;8.70599800;2023-02-15T05:39:58;2.10;99.90
5848;DHT22;8756;49.29324300;8.70599800;2023-02-15T05:42:24;2.10;99.90
5848;DHT22;8756;49.29324300;8.70599800;2023-02-15T05:44:50;2.10;99.90
5848;DHT22;8756;49.29324300;8.70599800;2023-02-15T05:47:15;2.10;99.90
5848;DHT22;8756;49.29324300;8.70599800;2023-02-15T05:49:41;2.10;99.90
5848;DHT22;8756;49.29324300;8.70599800;2023-02-15T05:52:06;2.10;99.90
5848;DHT22;8756;49.29324300;8.70599800;2023-02-15T05:54:33;2.00;99.90
5848;DHT22;8756;49.29324300;8.70599800;2023-02-15T05:56:59;2.10;99.90
5848;DHT22;8756;49.29324300;8.70599800;2023-02-15T05:59:24;2.10;99.90
5848;DHT22;8756;49.29324300;8.70599800;2023-02-15T06:01:50;2.00;99.90
5848;DHT22;8756;49.29324300;8.70599800;2023-02-15T06:04:15;2.00;99.90
5848;DHT22;8756;49.29324300;8.70599800;2023-02-15T06:06:41;2.00;99.90
5848;DHT22;8756;49.29324300;8.70599800;2023-02-15T06:09:07;2.00;99.90
5848;DHT22;8756;49.29324300;8.70599800;2023-02-15T06:11:32;2.00;99.90
5848;DHT22;8756;49.29324300;8.70599800;2023-02-15T06:13:58;2.00;99.90
5848;DHT22;8756;49.29324300;8.70599800;2023-02-15T06:16:23;2.00;99.90
5848;DHT22;8756;49.29324300;8.70599800;2023-02-15T06:18:49;2.00;99.90
5848;DHT22;8756;49.29324300;8.70599800;2023-02-15T06:21:15;2.00;99.90
5848;DHT22;8756;49.29324300;8.70599800;2023-02-15T06:23:41;2.00;99.90
5848;DHT22;8756;49.29324300;8.70599800;2023-02-15T06:26:08;2.00;99.90
5848;DHT22;8756;49.29324300;8.70599800;2023-02-15T06:28:34;2.00;99.90
5848;DHT22;8756;49.29324300;8.70599800;2023-02-15T06:30:59;2.00;99.90
5848;DHT22;8756;49.29324300;8.70599800;2023-02-15T06:33:25;2.00;99.90
5848;DHT22;8756;49.29324300;8.70599800;2023-02-15T06:35:51;2.00;99.90
5848;DHT22;8756;49.29324300;8.70599800;2023-02-15T06:38:19;2.00;99.90
5848;DHT22;8756;49.29324300;8.70599800;2023-02-15T06:40:45;1.90;99.90
5848;DHT22;8756;49.29324300;8.70599800;2023-02-15T06:43:10;1.80;99.90
5848;DHT22;8756;49.29324300;8.70599800;2023-02-15T06:45:36;1.80;99.90
5848;DHT22;8756;49.29324300;8.70599800;2023-02-15T06:48:02;1.70;99.90
5848;DHT22;8756;49.29324300;8.70599800;2023-02-15T06:50:27;1.70;99.90
5848;DHT22;8756;49.29324300;8.70599800;2023-02-15T06:52:59;1.70;99.90
5848;DHT22;8756;49.29324300;8.70599800;2023-02-15T06:55:25;1.70;99.90
5848;DHT22;8756;49.29324300;8.70599800;2023-02-15T06:57:51;1.70;99.90
5848;DHT22;8756;49.29324300;8.70599800;2023-02-15T07:00:17;1.70;99.90
5848;DHT22;8756;49.29324300;8.70599800;2023-02-15T07:02:44;1.70;99.90
5848;DHT22;8756;49.29324300;8.70599800;2023-02-15T07:05:09;1.70;99.90
5848;DHT22;8756;49.29324300;8.70599800;2023-02-15T07:07:35;1.70;99.90
5848;DHT22;8756;49.29324300;8.70599800;2023-02-15T07:10:02;1.70;99.90
5848;DHT22;8756;49.29324300;8.70599800;2023-02-15T07:12:28;1.70;99.90
5848;DHT22;8756;49.29324300;8.70599800;2023-02-15T07:15:12;1.60;99.90
5848;DHT22;8756;49.29324300;8.70599800;2023-02-15T07:17:42;1.60;99.90
5848;DHT22;8756;49.29324300;8.70599800;2023-02-15T07:20:11;1.50;99.90
5848;DHT22;8756;49.29324300;8.70599800;2023-02-15T07:22:38;1.50;99.90
5848;DHT22;8756;49.29324300;8.70599800;2023-02-15T07:25:07;1.40;99.90
5848;DHT22;8756;49.29324300;8.70599800;2023-02-15T07:27:36;1.40;99.90
5848;DHT22;8756;49.29324300;8.70599800;2023-02-15T07:30:02;1.40;99.90
5848;DHT22;8756;49.29324300;8.70599800;2023-02-15T07:32:31;1.50;99.90
5848;DHT22;8756;49.29324300;8.70599800;2023-02-15T07:34:58;1.40;99.90
5848;DHT22;8756;49.29324300;8.70599800;2023-02-15T07:37:24;1.40;99.90
5848;DHT22;8756;49.29324300;8.70599800;2023-02-15T07:39:50;1.40;99.90
5848;DHT22;8756;49.29324300;8.70599800;2023-02-15T07:42:16;1.40;99.90
5848;DHT22;8756;49.29324300;8.70599800;2023-02-15T07:44:43;1.40;99.90
5848;DHT22;8756;49.29324300;8.70599800;2023-02-15T07:47:09;1.40;99.90
5848;DHT22;8756;49.29324300;8.70599800;2023-02-15T07:49:34;1.50;99.90
5848;DHT22;8756;49.29324300;8.70599800;2023-02-15T07:52:03;1.50;99.90
5848;DHT22;8756;49.29324300;8.70599800;2023-02-15T07:54:29;1.50;99.90
5848;DHT22;8756;49.29324300;8.70599800;2023-02-15T07:56:55;1.40;99.90
5848;DHT22;8756;49.29324300;8.70599800;2023-02-15T07:59:20;1.40;99.90
5848;DHT22;8756;49.29324300;8.70599800;2023-02-15T08:01:46;1.30;99.90
5848;DHT22;8756;49.29324300;8.70599800;2023-02-15T08:04:12;1.30;99.90
5848;DHT22;8756;49.29324300;8.70599800;2023-02-15T08:06:38;1.30;99.90
5848;DHT22;8756;49.29324300;8.70599800;2023-02-15T08:09:06;1.30;99.90
5848;DHT22;8756;49.29324300;8.70599800;2023-02-15T08:11:34;1.30;99.90
5848;DHT22;8756;49.29324300;8.70599800;2023-02-15T08:14:07;1.20;99.90
5848;DHT22;8756;49.29324300;8.70599800;2023-02-15T08:16:38;1.20;99.90
5848;DHT22;8756;49.29324300;8.70599800;2023-02-15T08:21:54;1.20;99.90
5848;DHT22;8756;49.29324300;8.70599800;2023-02-15T08:24:25;1.20;99.90
5848;DHT22;8756;49.29324300;8.70599800;2023-02-15T08:26:52;1.20;99.90
5848;DHT22;8756;49.29324300;8.70599800;2023-02-15T08:29:21;1.20;99.90
5848;DHT22;8756;49.29324300;8.70599800;2023-02-15T08:31:49;1.20;99.90
5848;DHT22;8756;49.29324300;8.70599800;2023-02-15T08:34:17;1.20;99.90
5848;DHT22;8756;49.29324300;8.70599800;2023-02-15T08:36:48;1.30;99.90
5848;DHT22;8756;49.29324300;8.70599800;2023-02-15T08:39:15;1.30;99.90
5848;DHT22;8756;49.29324300;8.70599800;2023-02-15T08:41:45;1.30;99.90
5848;DHT22;8756;49.29324300;8.70599800;2023-02-15T08:44:13;1.30;99.90
5848;DHT22;8756;49.29324300;8.70599800;2023-02-15T08:46:41;1.30;99.90
5848;DHT22;8756;49.29324300;8.70599800;2023-02-15T08:49:10;1.30;99.90
5848;DHT22;8756;49.29324300;8.70599800;2023-02-15T08:51:38;1.20;99.90
5848;DHT22;8756;49.29324300;8.70599800;2023-02-15T08:54:06;1.20;99.90
5848;DHT22;8756;49.29324300;8.70599800;2023-02-15T08:56:40;1.20;99.90
5848;DHT22;8756;49.29324300;8.70599800;2023-02-15T08:59:11;1.20;99.90
5848;DHT22;8756;49.29324300;8.70599800;2023-02-15T09:01:38;1.20;99.90
5848;DHT22;8756;49.29324300;8.70599800;2023-02-15T09:04:06;1.20;99.90
5848;DHT22;8756;49.29324300;8.70599800;2023-02-15T09:06:36;1.20;99.90
5848;DHT22;8756;49.29324300;8.70599800;2023-02-15T09:09:03;1.20;99.90
5848;DHT22;8756;49.29324300;8.70599800;2023-02-15T09:11:37;1.10;99.90
5848;DHT22;8756;49.29324300;8.70599800;2023-02-15T09:14:08;1.20;99.90
5848;DHT22;8756;49.29324300;8.70599800;2023-02-15T09:16:43;1.20;99.90
5848;DHT22;8756;49.29324300;8.70599800;2023-02-15T09:19:15;1.20;99.90
5848;DHT22;8756;49.29324300;8.70599800;2023-02-15T09:21:41;1.20;99.90
5848;DHT22;8756;49.29324300;8.70599800;2023-02-15T09:24:13;1.10;99.90
5848;DHT22;8756;49.29324300;8.70599800;2023-02-15T09:26:42;1.20;99.90
5848;DHT22;8756;49.29324300;8.70599800;2023-02-15T09:29:10;1.20;99.90
5848;DHT22;8756;49.29324300;8.70599800;2023-02-15T09:31:42;1.20;99.90
5848;DHT22;8756;49.29324300;8.70599800;2023-02-15T09:34:14;1.20;99.90
5848;DHT22;8756;49.29324300;8.70599800;2023-02-15T09:36:44;1.20;99.90
5848;DHT22;8756;49.29324300;8.70599800;2023-02-15T09:44:58;1.30;99.90
5848;DHT22;8756;49.29324300;8.70599800;2023-02-15T09:48:01;1.30;99.90
5848;DHT22;8756;49.29324300;8.70599800;2023-02-15T09:56:48;1.30;99.90
5848;DHT22;8756;49.29324300;8.70599800;2023-02-15T10:02:02;1.40;99.90
5848;DHT22;8756;49.29324300;8.70599800;2023-02-15T10:07:52;1.40;99.90
5848;DHT22;8756;49.29324300;8.70599800;2023-02-15T10:25:58;1.40;99.90
5848;DHT22;8756;49.29324300;8.70599800;2023-02-15T10:31:33;1.50;99.90
5848;DHT22;8756;49.29324300;8.70599800;2023-02-15T10:34:19;1.50;99.90
5848;DHT22;8756;49.29324300;8.70599800;2023-02-15T10:43:22;1.70;99.90
5848;DHT22;8756;49.29324300;8.70599800;2023-02-15T10:46:22;1.70;99.90
5848;DHT22;8756;49.29324300;8.70599800;2023-02-15T10:49:24;1.80;99.90
5848;DHT22;8756;49.29324300;8.70599800;2023-02-15T10:52:16;1.80;99.90
5848;DHT22;8756;49.29324300;8.70599800;2023-02-15T10:55:34;1.80;99.90
5848;DHT22;8756;49.29324300;8.70599800;2023-02-15T10:58:26;1.70;99.90
5848;DHT22;8756;49.29324300;8.70599800;2023-02-15T11:01:18;1.80;99.90
5848;DHT22;8756;49.29324300;8.70599800;2023-02-15T11:07:12;1.90;99.90
5848;DHT22;8756;49.29324300;8.70599800;2023-02-15T11:09:46;1.90;99.90
5848;DHT22;8756;49.29324300;8.70599800;2023-02-15T11:12:18;1.90;99.90
5848;DHT22;8756;49.29324300;8.70599800;2023-02-15T11:15:20;2.00;99.90
5848;DHT22;8756;49.29324300;8.70599800;2023-02-15T11:17:57;2.00;99.90
5848;DHT22;8756;49.29324300;8.70599800;2023-02-15T11:20:36;2.00;99.90
5848;DHT22;8756;49.29324300;8.70599800;2023-02-15T11:23:26;2.00;99.90
5848;DHT22;8756;49.29324300;8.70599800;2023-02-15T11:26:13;2.00;99.90
5848;DHT22;8756;49.29324300;8.70599800;2023-02-15T11:28:47;2.00;99.90
5848;DHT22;8756;49.29324300;8.70599800;2023-02-15T11:31:20;2.10;99.90
5848;DHT22;8756;49.29324300;8.70599800;2023-02-15T11:33:52;2.10;99.90
5848;DHT22;8756;49.29324300;8.70599800;2023-02-15T11:36:27;2.10;99.90
5848;DHT22;8756;49.29324300;8.70599800;2023-02-15T11:39:17;2.20;99.90
5848;DHT22;8756;49.29324300;8.70599800;2023-02-15T11:41:49;2.20;99.90
5848;DHT22;8756;49.29324300;8.70599800;2023-02-15T11:44:20;2.30;99.90
5848;DHT22;8756;49.29324300;8.70599800;2023-02-15T11:46:49;2.30;99.90
5848;DHT22;8756;49.29324300;8.70599800;2023-02-15T11:49:29;2.30;99.90
5848;DHT22;8756;49.29324300;8.70599800;2023-02-15T11:51:57;2.30;99.90
5848;DHT22;8756;49.29324300;8.70599800;2023-02-15T11:54:30;2.40;99.90
5848;DHT22;8756;49.29324300;8.70599800;2023-02-15T11:57:02;2.40;99.90
5848;DHT22;8756;49.29324300;8.70599800;2023-02-15T11:59:37;2.40;99.90
5848;DHT22;8756;49.29324300;8.70599800;2023-02-15T12:02:22;2.40;99.90
5848;DHT22;8756;49.29324300;8.70599800;2023-02-15T12:04:58;2.40;99.90
5848;DHT22;8756;49.29324300;8.70599800;2023-02-15T12:07:34;2.50;99.90
5848;DHT22;8756;49.29324300;8.70599800;2023-02-15T12:10:24;2.50;99.90
5848;DHT22;8756;49.29324300;8.70599800;2023-02-15T12:13:13;2.60;99.90
5848;DHT22;8756;49.29324300;8.70599800;2023-02-15T12:15:42;2.60;99.90
5848;DHT22;8756;49.29324300;8.70599800;2023-02-15T12:21:07;2.60;99.90
5848;DHT22;8756;49.29324300;8.70599800;2023-02-15T12:23:47;2.60;99.90
5848;DHT22;8756;49.29324300;8.70599800;2023-02-15T12:26:24;2.70;99.90
5848;DHT22;8756;49.29324300;8.70599800;2023-02-15T12:28:51;2.70;99.90
5848;DHT22;8756;49.29324300;8.70599800;2023-02-15T12:31:20;2.80;99.90
5848;DHT22;8756;49.29324300;8.70599800;2023-02-15T12:33:50;2.80;99.90
5848;DHT22;8756;49.29324300;8.70599800;2023-02-15T12:36:29;2.80;99.90
5848;DHT22;8756;49.29324300;8.70599800;2023-02-15T12:42:00;2.90;99.90
5848;DHT22;8756;49.29324300;8.70599800;2023-02-15T12:44:36;2.90;99.90
5848;DHT22;8756;49.29324300;8.70599800;2023-02-15T12:47:18;2.90;99.90
5848;DHT22;8756;49.29324300;8.70599800;2023-02-15T12:50:04;2.80;99.90
5848;DHT22;8756;49.29324300;8.70599800;2023-02-15T12:52:30;2.80;99.90
5848;DHT22;8756;49.29324300;8.70599800;2023-02-15T12:55:10;2.80;99.90
5848;DHT22;8756;49.29324300;8.70599800;2023-02-15T12:57:43;2.80;99.90
5848;DHT22;8756;49.29324300;8.70599800;2023-02-15T13:00:25;2.80;99.90
5848;DHT22;8756;49.29324300;8.70599800;2023-02-15T13:02:55;2.80;99.90
5848;DHT22;8756;49.29324300;8.70599800;2023-02-15T13:05:35;2.80;99.90
5848;DHT22;8756;49.29324300;8.70599800;2023-02-15T13:08:30;2.80;99.90
5848;DHT22;8756;49.29324300;8.70599800;2023-02-15T13:13:31;3.00;99.90
5848;DHT22;8756;49.29324300;8.70599800;2023-02-15T13:16:07;3.10;99.90
5848;DHT22;8756;49.29324300;8.70599800;2023-02-15T13:18:44;3.10;99.90
5848;DHT22;8756;49.29324300;8.70599800;2023-02-15T13:23:37;3.30;99.90
5848;DHT22;8756;49.29324300;8.70599800;2023-02-15T13:26:11;3.40;99.90
5848;DHT22;8756;49.29324300;8.70599800;2023-02-15T13:28:45;3.40;99.90
5848;DHT22;8756;49.29324300;8.70599800;2023-02-15T13:31:19;3.40;99.90
5848;DHT22;8756;49.29324300;8.70599800;2023-02-15T13:33:56;3.50;99.90
5848;DHT22;8756;49.29324300;8.70599800;2023-02-15T13:36:43;3.50;99.90
5848;DHT22;8756;49.29324300;8.70599800;2023-02-15T13:39:38;3.60;99.90
5848;DHT22;8756;49.29324300;8.70599800;2023-02-15T13:42:18;3.70;99.90
5848;DHT22;8756;49.29324300;8.70599800;2023-02-15T13:45:16;3.80;99.90
5848;DHT22;8756;49.29324300;8.70599800;2023-02-15T13:47:59;3.80;99.90
5848;DHT22;8756;49.29324300;8.70599800;2023-02-15T13:50:50;3.90;99.90
5848;DHT22;8756;49.29324300;8.70599800;2023-02-15T14:11:42;4.30;99.90
5848;DHT22;8756;49.29324300;8.70599800;2023-02-15T14:20:15;4.40;99.90
5848;DHT22;8756;49.29324300;8.70599800;2023-02-15T14:22:53;4.40;99.90
5848;DHT22;8756;49.29324300;8.70599800;2023-02-15T14:25:42;4.40;99.90
5848;DHT22;8756;49.29324300;8.70599800;2023-02-15T14:28:21;4.40;99.90
5848;DHT22;8756;49.29324300;8.70599800;2023-02-15T14:30:54;4.40;99.90
5848;DHT22;8756;49.29324300;8.70599800;2023-02-15T14:33:38;4.50;99.90
5848;DHT22;8756;49.29324300;8.70599800;2023-02-15T14:36:07;4.60;99.90
5848;DHT22;8756;49.29324300;8.70599800;2023-02-15T14:38:43;4.60;99.90
5848;DHT22;8756;49.29324300;8.70599800;2023-02-15T14:44:15;4.70;99.90
5848;DHT22;8756;49.29324300;8.70599800;2023-02-15T14:49:35;4.70;99.90
5848;DHT22;8756;49.29324300;8.70599800;2023-02-15T14:52:07;4.80;99.90
5848;DHT22;8756;49.29324300;8.70599800;2023-02-15T15:02:17;4.80;99.90
5848;DHT22;8756;49.29324300;8.70599800;2023-02-15T15:07:55;4.90;99.90
5848;DHT22;8756;49.29324300;8.70599800;2023-02-15T15:12:55;4.90;99.90
5848;DHT22;8756;49.29324300;8.70599800;2023-02-15T15:18:04;5.00;99.90
5848;DHT22;8756;49.29324300;8.70599800;2023-02-15T15:20:44;5.00;99.90
5848;DHT22;8756;49.29324300;8.70599800;2023-02-15T15:28:06;5.00;99.90
5848;DHT22;8756;49.29324300;8.70599800;2023-02-15T15:33:11;5.00;99.90
5848;DHT22;8756;49.29324300;8.70599800;2023-02-15T15:36:15;5.00;99.90
5848;DHT22;8756;49.29324300;8.70599800;2023-02-15T15:39:07;5.00;99.90
5848;DHT22;8756;49.29324300;8.70599800;2023-02-15T15:45:22;5.00;99.90
5848;DHT22;8756;49.29324300;8.70599800;2023-02-15T15:48:34;5.10;99.90
5848;DHT22;8756;49.29324300;8.70599800;2023-02-15T15:51:14;5.10;99.90
5848;DHT22;8756;49.29324300;8.70599800;2023-02-15T15:53:47;5.10;99.90
5848;DHT22;8756;49.29324300;8.70599800;2023-02-15T15:56:36;5.10;99.90
5848;DHT22;8756;49.29324300;8.70599800;2023-02-15T15:59:07;5.10;99.90
5848;DHT22;8756;49.29324300;8.70599800;2023-02-15T16:01:42;5.10;99.90
5848;DHT22;8756;49.29324300;8.70599800;2023-02-15T16:04:13;5.10;99.90
5848;DHT22;8756;49.29324300;8.70599800;2023-02-15T16:06:40;5.00;99.90
5848;DHT22;8756;49.29324300;8.70599800;2023-02-15T16:11:47;5.00;99.90
5848;DHT22;8756;49.29324300;8.70599800;2023-02-15T16:14:38;5.00;99.90
5848;DHT22;8756;49.29324300;8.70599800;2023-02-15T16:17:05;5.00;99.90
5848;DHT22;8756;49.29324300;8.70599800;2023-02-15T16:19:34;4.90;99.90
5848;DHT22;8756;49.29324300;8.70599800;2023-02-15T16:22:03;4.90;99.90
5848;DHT22;8756;49.29324300;8.70599800;2023-02-15T16:24:51;4.90;99.90
5848;DHT22;8756;49.29324300;8.70599800;2023-02-15T16:32:52;4.80;99.90
5848;DHT22;8756;49.29324300;8.70599800;2023-02-15T16:35:21;4.70;99.90
5848;DHT22;8756;49.29324300;8.70599800;2023-02-15T16:37:47;4.60;99.90
5848;DHT22;8756;49.29324300;8.70599800;2023-02-15T16:40:29;4.60;99.90
5848;DHT22;8756;49.29324300;8.70599800;2023-02-15T16:43:05;4.60;99.90
5848;DHT22;8756;49.29324300;8.70599800;2023-02-15T16:45:33;4.60;99.90
5848;DHT22;8756;49.29324300;8.70599800;2023-02-15T16:48:07;4.60;99.90
5848;DHT22;8756;49.29324300;8.70599800;2023-02-15T16:50:37;4.50;99.90
5848;DHT22;8756;49.29324300;8.70599800;2023-02-15T16:53:05;4.50;99.90
5848;DHT22;8756;49.29324300;8.70599800;2023-02-15T16:55:41;4.50;99.90
5848;DHT22;8756;49.29324300;8.70599800;2023-02-15T16:58:13;4.40;99.90
5848;DHT22;8756;49.29324300;8.70599800;2023-02-15T17:00:41;4.40;99.90